Weather observations for the past three days for
St. Mary's, St. Mary's Airport
Imperial (Metric)
Date Time (akdt) Wind (mph) Vis. (mi.) Weather Sky Cond. Temperature (ºF) Relative Humidity Wind Chill (°F) Heat Index (°F) Pressure Precipitation (in)
Air Dwpt 6 hour altimeter (in) sea level (mb) 1 hr 3 hr 6 hr
Max. Min.
08 01:56 N 15 10.00 Fair CLR 21.9 18 85% 10 30.03 1017.9
08 00:56 N 14 10.00 Fair CLR 23 19 85% 11 30.04 1018.0
07 23:56 N 16 10.00 Fair CLR 25 19.9 81% 13 30.04 1018.3
07 22:56 N 16 10.00 Fair CLR 28 21.9 78% 17 30.04 1018.4
07 21:56 N 18 10.00 Fair CLR 30 21.9 36 30 72% 19 30.05 1018.5
07 20:56 N 18 10.00 Fair CLR 32 21 64% 21 30.05 1018.5
07 19:56 N 17 10.00 Fair CLR 34 21 59% 24 30.06 1018.8
07 18:56 N 18 10.00 Fair CLR 34 21 59% 24 30.07 1019.2
07 17:56 N 17 10.00 A Few Clouds FEW030 35.1 19.9 54% 26 30.07 1019.4
07 16:56 N 15 G 22 10.00 A Few Clouds FEW030 35.1 21.9 59% 26 30.08 1019.7
07 15:56 N 17 10.00 A Few Clouds FEW028 35.1 21.9 35.1 26.1 59% 26 30.09 1020.0
07 14:56 N 20 10.00 Mostly Cloudy BKN030 35.1 23 61% 25 30.1 1020.2
07 13:56 NE 12 10.00 Mostly Cloudy BKN028 34 21 59% 26 30.11 1020.6
07 12:56 N 13 10.00 Partly Cloudy SCT024 33.1 21 61% 25 30.11 1020.8
07 11:56 N 10 10.00 A Few Clouds FEW017 30.9 21.9 69% 23 30.12 1021.0
07 10:56 N 14 10.00 A Few Clouds FEW013 28 21 75% 18 30.12 1021.1
07 09:56 N 13 G 20 10.00 A Few Clouds FEW012 26.1 21 26.1 18 81% 16 30.13 1021.2
07 08:56 N 12 10.00 Fair CLR 24.1 19 81% 14 30.13 1021.3
07 07:56 N 8 10.00 Fair CLR 21 17.1 85% 12 30.14 1021.6
07 06:56 N 8 10.00 Fair CLR 18 16 92% 9 30.13 1021.5
07 05:56 N 6 10.00 Fair CLR 19.9 17.1 89% 13 30.13 1021.4
07 04:56 N 6 10.00 Fair CLR 21.9 17.1 82% 15 30.13 1021.5
07 03:56 N 7 10.00 Overcast OVC023 25 18 30 25 75% 18 30.13 1021.5
07 02:56 N 8 10.00 Overcast OVC023 26.1 19 75% 18 30.13 1021.4
07 01:56 N 8 10.00 Overcast OVC023 27 19 72% 19 30.13 1021.3
07 00:56 N 7 10.00 Overcast OVC025 28 19 69% 22 30.12 1021.0
06 23:56 N 6 10.00 Overcast OVC027 28 21 75% 22 30.12 1021.0
06 22:56 NW 5 10.00 Overcast OVC027 28 19.9 72% 24 30.11 1020.7
06 21:56 N 9 10.00 Overcast OVC025 30 21 30.9 28.9 69% 22 30.11 1020.5
06 20:56 NW 8 10.00 Overcast OVC025 30 21 69% 23 30.11 1020.5
06 19:56 NW 6 10.00 Overcast OVC025 30.9 21 67% 26 30.1 1020.4
06 18:56 W 10 10.00 Overcast OVC023 30.9 23 72% 23 30.1 1020.3
06 17:56 SW 8 10.00 Overcast OVC021 30.9 21.9 69% 24 30.1 1020.3
06 16:56 SW 8 10.00 Overcast OVC019 30.9 23 72% 24 30.1 1020.3
06 15:56 W 6 10.00 Overcast OVC017 28.9 21.9 30 25 75% 23 30.11 1020.6
06 14:56 SW 6 10.00 Overcast OVC015 30 21.9 72% 25 30.1 1020.5
06 13:56 Vrbl 5 10.00 Overcast OVC015 28 21 75% 24 30.11 1020.5
06 12:56 SW 7 10.00 Overcast OVC013 27 21 78% 20 30.1 1020.5
06 11:56 NW 3 10.00 Overcast OVC013 26.1 19.9 78% 30.1 1020.4
06 10:56 NW 5 10.00 Overcast OVC011 25 21 85% 20 30.09 1020.2
06 09:56 NW 8 10.00 Overcast OVC009 25 21 25 24.1 85% 17 30.09 1020.1
06 08:56 NW 7 10.00 Overcast OVC009 24.1 21 88% 17 30.09 1019.9
06 07:56 NW 6 10.00 Overcast OVC009 24.1 19.9 84% 18 30.08 1019.6
06 06:56 NW 5 10.00 Overcast OVC009 24.1 19.9 84% 19 30.07 1019.3
06 05:56 NW 8 10.00 Overcast OVC009 24.1 21 88% 16 30.06 1019.0
06 04:56 NW 7 10.00 Overcast OVC009 24.1 19.9 84% 17 30.06 1018.8
06 03:56 NW 8 10.00 Overcast OVC009 24.1 19.9 26.1 24.1 84% 16 30.05 1018.7
06 02:56 NW 9 10.00 Overcast OVC009 24.1 21 88% 15 30.05 1018.5
06 01:56 NW 9 10.00 Overcast OVC009 24.1 21 88% 15 30.04 1018.5
06 00:56 NW 12 10.00 Overcast OVC009 24.1 21 88% 14 30.03 1018.1
05 23:56 NW 9 10.00 Overcast OVC011 25 21 85% 16 30.03 1017.8
05 22:56 NW 10 10.00 Overcast OVC011 26.1 21.9 84% 17 30.02 1017.5
05 21:56 NW 15 10.00 Overcast OVC013 26.1 21.9 33.1 26.1 84% 15 30.01 1017.2
05 20:56 NW 12 10.00 Overcast OVC013 27 23 85% 17 30 1017.1
05 19:56 NW 13 10.00 Overcast OVC013 28 21.9 78% 18 30 1017.1
05 18:56 NW 14 10.00 Overcast OVC017 30 23 75% 20 29.99 1016.7
05 17:56 NW 13 10.00 Overcast OVC021 30.9 23 72% 22 29.98 1016.3
05 16:56 NW 13 10.00 Mostly Cloudy BKN021 32 24.1 73% 23 29.97 1015.9
05 15:56 NW 16 G 20 10.00 Mostly Cloudy BKN019 32 23 32 25 69% 22 29.97 1015.7
05 14:56 N 15 10.00 Overcast OVC015 30.9 25 79% 21 29.97 1015.7
05 13:56 NW 16 10.00 Overcast OVC013 30 24.1 79% 19 29.96 1015.5
05 12:56 NW 15 G 22 10.00 Mostly Cloudy BKN013 28.9 24.1 82% 18 29.96 1015.4
05 11:56 N 16 10.00 Overcast OVC011 28.9 23 78% 18 29.95 1015.1
05 10:56 NW 16 10.00 Overcast OVC007 26.1 23 88% 14 29.94 1014.9
05 09:56 NW 16 10.00 Overcast OVC003 25 24.1 25 23 96% 13 29.94 1014.8
05 08:56 N 16 10.00 Overcast OVC003 24.1 24.1 100% 12 29.92 1014.4
05 07:56 N 17 10.00 Overcast OVC003 24.1 24.1 100% 11 29.91 1013.9
05 06:56 N 17 10.00 Mostly Cloudy BKN005 23 23 100% 10 29.89 1013.2
05 05:56 NW 16 10.00 Fair CLR 23 23 100% 11 29.88 1012.8
05 04:56 NW 15 10.00 Fair CLR 24.1 24.1 100% 12 29.87 1012.5
05 03:56 N 16 10.00 Fair CLR 24.1 24.1 30 24.1 100% 12 29.87 1012.5
05 02:56 N 16 10.00 Fair CLR 25 24.1 96% 13 29.87 1012.4
Date Time (akdt) Wind (mph) Vis. (mi.) Weather Sky Cond. Air Dwpt Max. Min. Relative Humidity Wind Chill (°F) Heat Index (°F) altimeter (in) sea level (mb) 1 hr 3 hr 6 hr
6 hour
Temperature (ºF) Pressure Precipitation (in)